North Tunica, Mississippi
Current Conditions -  °F | °C
As of 3:35 PM on Sunday 23 Nov 2014 (Local Time) from KUTA Reporting Station
Light Rain Light Rain  
Wind Chill: 61°   Ceiling: 1400
Heat Index: 61°   Visibility: 4mi
Dew Point: 59°   Wind: 14mph
Humidity: 94%   Direction: 270°W
Pressure: 29.37"   Gusts: NA
Location:  34.6827°N, 90.3615°W
Report Text: KUTA 232135Z AUTO 27012KT 4SM -RA SCT006 BKN014 OVC027 16/15 A2937 RMK AO2 P0002
Loading
Personal Weather Stations






























Interactive Weather Map New forecast layout! Learn more

10-Day Weather Forecast

Advertisements
Track Severe Weather on mobile